sensor_id;sensor_type;location;lat;lon;timestamp;pressure;altitude;pressure_sealevel;temperature;humidity
14393;BME280;7281;42.678;23.372;2022-08-01T00:00:07;94959.69;;;25.17;37.11
14393;BME280;7281;42.678;23.372;2022-08-01T00:02:39;94958.75;;;25.40;37.15
14393;BME280;7281;42.678;23.372;2022-08-01T00:05:07;94945.19;;;25.49;36.84
14393;BME280;7281;42.678;23.372;2022-08-01T00:07:34;94955.03;;;25.76;36.61
14393;BME280;7281;42.678;23.372;2022-08-01T00:10:07;94955.38;;;25.59;37.17
14393;BME280;7281;42.678;23.372;2022-08-01T00:12:34;94958.66;;;25.37;38.18
14393;BME280;7281;42.678;23.372;2022-08-01T00:15:03;94957.34;;;24.99;39.14
14393;BME280;7281;42.678;23.372;2022-08-01T00:17:30;94959.69;;;25.17;38.80
14393;BME280;7281;42.678;23.372;2022-08-01T00:19:56;94962.09;;;24.90;39.81
14393;BME280;7281;42.678;23.372;2022-08-01T00:22:23;94961.94;;;25.15;39.20
14393;BME280;7281;42.678;23.372;2022-08-01T00:24:50;94968.44;;;24.98;39.79
14393;BME280;7281;42.678;23.372;2022-08-01T00:27:17;94976.69;;;24.77;40.27
14393;BME280;7281;42.678;23.372;2022-08-01T00:29:44;94982.81;;;24.38;40.50
14393;BME280;7281;42.678;23.372;2022-08-01T00:32:31;94975.44;;;24.47;40.83
14393;BME280;7281;42.678;23.372;2022-08-01T00:34:58;94977.22;;;24.83;40.17
14393;BME280;7281;42.678;23.372;2022-08-01T00:37:25;94974.44;;;24.67;40.25
14393;BME280;7281;42.678;23.372;2022-08-01T00:39:52;94978.06;;;24.59;40.31
14393;BME280;7281;42.678;23.372;2022-08-01T00:42:19;94978.53;;;24.49;40.53
14393;BME280;7281;42.678;23.372;2022-08-01T00:44:46;94966.66;;;24.62;40.34
14393;BME280;7281;42.678;23.372;2022-08-01T00:47:13;94983.50;;;24.35;40.92
14393;BME280;7281;42.678;23.372;2022-08-01T00:49:40;94971.97;;;24.07;41.13
14393;BME280;7281;42.678;23.372;2022-08-01T00:52:08;94976.19;;;23.96;41.46
14393;BME280;7281;42.678;23.372;2022-08-01T00:54:35;94980.03;;;23.71;41.57
14393;BME280;7281;42.678;23.372;2022-08-01T00:57:02;94980.38;;;24.33;40.38
14393;BME280;7281;42.678;23.372;2022-08-01T00:59:30;94961.00;;;24.24;40.50
14393;BME280;7281;42.678;23.372;2022-08-01T01:01:57;94961.31;;;24.35;40.00
14393;BME280;7281;42.678;23.372;2022-08-01T01:04:24;94953.41;;;24.26;40.33
14393;BME280;7281;42.678;23.372;2022-08-01T01:07:06;94951.50;;;24.54;40.33
14393;BME280;7281;42.678;23.372;2022-08-01T01:09:46;94947.91;;;24.35;40.21
14393;BME280;7281;42.678;23.372;2022-08-01T01:17:58;94943.22;;;24.04;41.11
14393;BME280;7281;42.678;23.372;2022-08-01T01:20:31;94940.47;;;24.28;40.74
14393;BME280;7281;42.678;23.372;2022-08-01T01:25:51;94944.53;;;24.10;41.25
14393;BME280;7281;42.678;23.372;2022-08-01T01:28:27;94942.19;;;24.36;40.41
14393;BME280;7281;42.678;23.372;2022-08-01T01:30:57;94940.03;;;24.26;40.53
14393;BME280;7281;42.678;23.372;2022-08-01T01:33:26;94931.81;;;24.47;40.02
14393;BME280;7281;42.678;23.372;2022-08-01T01:36:11;94923.75;;;24.19;40.26
14393;BME280;7281;42.678;23.372;2022-08-01T01:38:42;94921.66;;;24.40;39.71
14393;BME280;7281;42.678;23.372;2022-08-01T01:41:11;94923.56;;;24.40;39.89
14393;BME280;7281;42.678;23.372;2022-08-01T01:43:40;94923.41;;;24.48;40.08
14393;BME280;7281;42.678;23.372;2022-08-01T01:46:08;94920.13;;;24.39;39.77
14393;BME280;7281;42.678;23.372;2022-08-01T01:48:36;94901.19;;;24.32;39.89
14393;BME280;7281;42.678;23.372;2022-08-01T01:51:04;94918.34;;;24.31;39.53
14393;BME280;7281;42.678;23.372;2022-08-01T01:53:33;94924.09;;;24.45;39.62
14393;BME280;7281;42.678;23.372;2022-08-01T01:56:02;94921.63;;;24.52;38.98
14393;BME280;7281;42.678;23.372;2022-08-01T01:58:31;94915.38;;;24.48;39.62
14393;BME280;7281;42.678;23.372;2022-08-01T02:01:00;94909.94;;;24.45;38.97
14393;BME280;7281;42.678;23.372;2022-08-01T02:03:30;94919.31;;;24.11;38.33
14393;BME280;7281;42.678;23.372;2022-08-01T02:05:59;94902.53;;;24.26;39.10
14393;BME280;7281;42.678;23.372;2022-08-01T02:08:26;94902.25;;;24.43;39.25
14393;BME280;7281;42.678;23.372;2022-08-01T02:10:58;94901.81;;;24.41;38.94
14393;BME280;7281;42.678;23.372;2022-08-01T02:13:58;94890.03;;;24.30;39.62
14393;BME280;7281;42.678;23.372;2022-08-01T02:16:28;94905.78;;;24.47;39.58
14393;BME280;7281;42.678;23.372;2022-08-01T02:27:33;94908.31;;;24.56;39.75
14393;BME280;7281;42.678;23.372;2022-08-01T02:30:06;94905.97;;;24.54;39.34
14393;BME280;7281;42.678;23.372;2022-08-01T02:32:41;94908.41;;;24.59;38.91
14393;BME280;7281;42.678;23.372;2022-08-01T02:35:23;94902.78;;;24.21;39.77
14393;BME280;7281;42.678;23.372;2022-08-01T02:37:52;94898.19;;;24.49;39.20
14393;BME280;7281;42.678;23.372;2022-08-01T02:40:20;94901.63;;;24.34;39.45
14393;BME280;7281;42.678;23.372;2022-08-01T02:42:50;94904.31;;;24.50;38.66
14393;BME280;7281;42.678;23.372;2022-08-01T02:45:19;94903.16;;;24.35;38.66
14393;BME280;7281;42.678;23.372;2022-08-01T02:47:48;94898.16;;;24.34;39.40
14393;BME280;7281;42.678;23.372;2022-08-01T02:50:17;94904.06;;;24.27;39.44
14393;BME280;7281;42.678;23.372;2022-08-01T02:52:48;94903.88;;;24.20;40.28
14393;BME280;7281;42.678;23.372;2022-08-01T02:55:17;94906.75;;;24.27;39.45
14393;BME280;7281;42.678;23.372;2022-08-01T02:57:47;94900.81;;;24.06;39.33
14393;BME280;7281;42.678;23.372;2022-08-01T03:00:23;94895.13;;;23.95;39.59
14393;BME280;7281;42.678;23.372;2022-08-01T03:02:52;94916.19;;;22.64;41.32
14393;BME280;7281;42.678;23.372;2022-08-01T03:05:22;94909.16;;;23.53;40.15
14393;BME280;7281;42.678;23.372;2022-08-01T03:07:51;94912.72;;;23.45;41.02
14393;BME280;7281;42.678;23.372;2022-08-01T03:10:20;94914.72;;;23.60;40.76
14393;BME280;7281;42.678;23.372;2022-08-01T03:12:48;94906.03;;;23.51;40.25
14393;BME280;7281;42.678;23.372;2022-08-01T03:15:16;94897.22;;;23.62;39.72
14393;BME280;7281;42.678;23.372;2022-08-01T03:17:45;94909.13;;;23.77;39.73
14393;BME280;7281;42.678;23.372;2022-08-01T03:20:15;94901.97;;;23.81;39.80
14393;BME280;7281;42.678;23.372;2022-08-01T03:22:44;94914.91;;;23.79;39.89
14393;BME280;7281;42.678;23.372;2022-08-01T03:25:13;94915.84;;;23.59;39.93
14393;BME280;7281;42.678;23.372;2022-08-01T03:27:43;94921.97;;;23.47;40.78
14393;BME280;7281;42.678;23.372;2022-08-01T03:30:11;94921.50;;;23.69;40.04
14393;BME280;7281;42.678;23.372;2022-08-01T03:32:38;94922.28;;;23.70;40.13
14393;BME280;7281;42.678;23.372;2022-08-01T03:35:06;94912.72;;;23.57;40.53
14393;BME280;7281;42.678;23.372;2022-08-01T03:40:04;94915.94;;;23.26;40.09
14393;BME280;7281;42.678;23.372;2022-08-01T03:42:38;94922.06;;;23.51;40.45
14393;BME280;7281;42.678;23.372;2022-08-01T03:45:11;94923.44;;;23.45;40.07
14393;BME280;7281;42.678;23.372;2022-08-01T03:47:43;94921.84;;;23.44;41.34
14393;BME280;7281;42.678;23.372;2022-08-01T03:50:14;94922.94;;;23.79;40.46
14393;BME280;7281;42.678;23.372;2022-08-01T03:52:45;94925.75;;;23.58;41.31
14393;BME280;7281;42.678;23.372;2022-08-01T03:55:15;94920.25;;;23.67;41.10
14393;BME280;7281;42.678;23.372;2022-08-01T03:57:44;94929.72;;;23.76;40.70
14393;BME280;7281;42.678;23.372;2022-08-01T04:00:12;94922.81;;;23.87;41.11
14393;BME280;7281;42.678;23.372;2022-08-01T04:02:40;94923.03;;;23.82;41.33
14393;BME280;7281;42.678;23.372;2022-08-01T04:05:08;94930.94;;;23.91;41.17
14393;BME280;7281;42.678;23.372;2022-08-01T04:07:35;94920.06;;;23.72;40.92
14393;BME280;7281;42.678;23.372;2022-08-01T04:10:04;94929.97;;;23.71;41.69
14393;BME280;7281;42.678;23.372;2022-08-01T04:12:31;94931.63;;;23.88;41.55
14393;BME280;7281;42.678;23.372;2022-08-01T04:14:59;94924.69;;;23.99;41.37
14393;BME280;7281;42.678;23.372;2022-08-01T04:17:26;94927.34;;;23.99;41.13
14393;BME280;7281;42.678;23.372;2022-08-01T04:19:53;94924.81;;;24.02;41.19
14393;BME280;7281;42.678;23.372;2022-08-01T04:22:20;94917.88;;;24.14;41.03
14393;BME280;7281;42.678;23.372;2022-08-01T04:24:49;94922.63;;;24.20;40.60
14393;BME280;7281;42.678;23.372;2022-08-01T04:27:31;94926.56;;;23.98;40.62
14393;BME280;7281;42.678;23.372;2022-08-01T04:30:24;94925.78;;;23.98;40.73
14393;BME280;7281;42.678;23.372;2022-08-01T04:32:54;94927.09;;;24.16;39.70
14393;BME280;7281;42.678;23.372;2022-08-01T04:35:21;94935.53;;;24.02;40.36
14393;BME280;7281;42.678;23.372;2022-08-01T04:38:14;94932.16;;;24.05;40.75
14393;BME280;7281;42.678;23.372;2022-08-01T04:40:44;94927.03;;;24.00;41.55
14393;BME280;7281;42.678;23.372;2022-08-01T04:43:14;94926.19;;;24.24;40.59
14393;BME280;7281;42.678;23.372;2022-08-01T04:45:42;94917.56;;;24.03;40.32
14393;BME280;7281;42.678;23.372;2022-08-01T04:48:10;94916.81;;;24.30;39.93
14393;BME280;7281;42.678;23.372;2022-08-01T04:50:38;94927.84;;;24.01;40.25
14393;BME280;7281;42.678;23.372;2022-08-01T04:53:04;94929.59;;;23.97;40.22
14393;BME280;7281;42.678;23.372;2022-08-01T04:55:31;94935.38;;;24.11;39.60
14393;BME280;7281;42.678;23.372;2022-08-01T04:57:58;94926.00;;;24.17;39.56
14393;BME280;7281;42.678;23.372;2022-08-01T05:00:25;94920.03;;;23.84;39.67
14393;BME280;7281;42.678;23.372;2022-08-01T05:02:52;94914.66;;;24.08;39.64
14393;BME280;7281;42.678;23.372;2022-08-01T05:05:19;94914.66;;;24.08;40.86
14393;BME280;7281;42.678;23.372;2022-08-01T05:07:47;94911.91;;;24.20;39.58
14393;BME280;7281;42.678;23.372;2022-08-01T05:10:14;94905.13;;;24.10;39.57
14393;BME280;7281;42.678;23.372;2022-08-01T05:12:41;94905.94;;;24.11;39.79
14393;BME280;7281;42.678;23.372;2022-08-01T05:15:08;94908.59;;;24.66;38.89
14393;BME280;7281;42.678;23.372;2022-08-01T05:17:41;94907.72;;;24.62;39.00
14393;BME280;7281;42.678;23.372;2022-08-01T05:20:10;94900.13;;;24.09;38.97
14393;BME280;7281;42.678;23.372;2022-08-01T05:22:38;94902.78;;;24.21;38.83
14393;BME280;7281;42.678;23.372;2022-08-01T05:25:05;94899.41;;;24.24;38.38
14393;BME280;7281;42.678;23.372;2022-08-01T05:27:32;94900.31;;;24.71;38.40
14393;BME280;7281;42.678;23.372;2022-08-01T05:30:07;94897.53;;;24.68;37.35
14393;BME280;7281;42.678;23.372;2022-08-01T05:32:35;94902.94;;;24.99;37.55
14393;BME280;7281;42.678;23.372;2022-08-01T05:35:03;94899.84;;;24.81;36.79
14393;BME280;7281;42.678;23.372;2022-08-01T05:37:30;94899.41;;;24.95;37.25
14393;BME280;7281;42.678;23.372;2022-08-01T05:39:57;94904.19;;;25.01;36.84
14393;BME280;7281;42.678;23.372;2022-08-01T05:42:24;94901.13;;;24.87;35.93
14393;BME280;7281;42.678;23.372;2022-08-01T05:44:51;94908.31;;;24.56;36.16
14393;BME280;7281;42.678;23.372;2022-08-01T05:47:18;94896.91;;;24.86;36.04
14393;BME280;7281;42.678;23.372;2022-08-01T05:49:45;94897.78;;;25.22;35.76
14393;BME280;7281;42.678;23.372;2022-08-01T05:52:12;94897.56;;;25.15;36.03
14393;BME280;7281;42.678;23.372;2022-08-01T05:54:39;94900.09;;;25.07;35.70
14393;BME280;7281;42.678;23.372;2022-08-01T05:57:06;94898.38;;;25.46;35.78
14393;BME280;7281;42.678;23.372;2022-08-01T05:59:33;94911.34;;;25.29;35.73
14393;BME280;7281;42.678;23.372;2022-08-01T06:02:00;94912.84;;;25.42;35.69
14393;BME280;7281;42.678;23.372;2022-08-01T06:04:27;94908.81;;;25.86;34.35
14393;BME280;7281;42.678;23.372;2022-08-01T06:06:54;94901.09;;;25.65;34.61
14393;BME280;7281;42.678;23.372;2022-08-01T06:09:21;94907.06;;;25.93;33.82
14393;BME280;7281;42.678;23.372;2022-08-01T06:11:48;94904.59;;;25.85;34.92
14393;BME280;7281;42.678;23.372;2022-08-01T06:14:14;94887.25;;;26.17;34.22
14393;BME280;7281;42.678;23.372;2022-08-01T06:16:41;94901.75;;;25.43;33.98
14393;BME280;7281;42.678;23.372;2022-08-01T06:19:08;94911.44;;;25.82;34.59
14393;BME280;7281;42.678;23.372;2022-08-01T06:21:35;94910.25;;;25.80;33.41
14393;BME280;7281;42.678;23.372;2022-08-01T06:24:02;94911.50;;;25.86;33.94
14393;BME280;7281;42.678;23.372;2022-08-01T06:26:29;94907.22;;;26.00;33.64
14393;BME280;7281;42.678;23.372;2022-08-01T06:28:55;94900.38;;;26.03;34.28
14393;BME280;7281;42.678;23.372;2022-08-01T06:31:22;94907.06;;;26.28;33.83
14393;BME280;7281;42.678;23.372;2022-08-01T06:33:49;94911.88;;;26.19;34.61
14393;BME280;7281;42.678;23.372;2022-08-01T06:36:16;94909.19;;;26.19;33.66
14393;BME280;7281;42.678;23.372;2022-08-01T06:38:42;94908.88;;;25.70;33.70
14393;BME280;7281;42.678;23.372;2022-08-01T06:41:09;94900.34;;;25.34;32.52
14393;BME280;7281;42.678;23.372;2022-08-01T06:43:36;94900.75;;;25.67;32.29
14393;BME280;7281;42.678;23.372;2022-08-01T06:46:03;94895.03;;;25.68;32.19
14393;BME280;7281;42.678;23.372;2022-08-01T06:48:30;94898.81;;;25.33;32.08
14393;BME280;7281;42.678;23.372;2022-08-01T06:50:57;94894.09;;;25.61;31.99
14393;BME280;7281;42.678;23.372;2022-08-01T06:53:44;94879.72;;;25.69;32.07
14393;BME280;7281;42.678;23.372;2022-08-01T06:56:11;94874.47;;;26.11;32.83
14393;BME280;7281;42.678;23.372;2022-08-01T06:58:38;94871.59;;;25.84;32.04
14393;BME280;7281;42.678;23.372;2022-08-01T07:01:05;94879.22;;;26.17;32.18
14393;BME280;7281;42.678;23.372;2022-08-01T07:03:34;94879.13;;;25.94;31.62
14393;BME280;7281;42.678;23.372;2022-08-01T07:06:23;94878.69;;;25.58;32.40
14393;BME280;7281;42.678;23.372;2022-08-01T07:08:50;94862.66;;;25.96;32.10
14393;BME280;7281;42.678;23.372;2022-08-01T07:11:17;94879.16;;;25.79;32.09
14393;BME280;7281;42.678;23.372;2022-08-01T07:13:44;94865.75;;;25.98;32.20
14393;BME280;7281;42.678;23.372;2022-08-01T07:16:15;94839.97;;;25.74;32.52
14393;BME280;7281;42.678;23.372;2022-08-01T07:18:43;94885.69;;;26.35;32.20
14393;BME280;7281;42.678;23.372;2022-08-01T07:21:10;94881.97;;;26.40;31.89
14393;BME280;7281;42.678;23.372;2022-08-01T07:23:57;94865.75;;;26.74;31.75
14393;BME280;7281;42.678;23.372;2022-08-01T07:26:25;94873.53;;;26.41;32.08
14393;BME280;7281;42.678;23.372;2022-08-01T07:28:54;94876.59;;;26.81;32.31
14393;BME280;7281;42.678;23.372;2022-08-01T07:31:20;94873.09;;;26.58;31.96
14393;BME280;7281;42.678;23.372;2022-08-01T07:33:47;94881.13;;;26.77;31.50
14393;BME280;7281;42.678;23.372;2022-08-01T07:36:16;94878.34;;;27.38;31.22
14393;BME280;7281;42.678;23.372;2022-08-01T07:38:43;94873.38;;;26.72;30.86
14393;BME280;7281;42.678;23.372;2022-08-01T07:41:10;94871.94;;;26.18;31.39
14393;BME280;7281;42.678;23.372;2022-08-01T07:43:37;94870.44;;;26.39;31.57
14393;BME280;7281;42.678;23.372;2022-08-01T07:46:04;94889.50;;;27.18;31.27
14393;BME280;7281;42.678;23.372;2022-08-01T07:48:32;94879.47;;;26.69;31.46
14393;BME280;7281;42.678;23.372;2022-08-01T07:50:58;94873.16;;;27.03;31.27
14393;BME280;7281;42.678;23.372;2022-08-01T07:53:25;94884.50;;;26.93;30.76
14393;BME280;7281;42.678;23.372;2022-08-01T07:55:52;94880.44;;;27.26;30.39
14393;BME280;7281;42.678;23.372;2022-08-01T07:58:19;94846.03;;;27.16;30.84
14393;BME280;7281;42.678;23.372;2022-08-01T08:00:46;94873.47;;;27.25;30.92
14393;BME280;7281;42.678;23.372;2022-08-01T08:03:13;94885.88;;;27.07;30.70
14393;BME280;7281;42.678;23.372;2022-08-01T08:05:40;94870.97;;;26.48;31.38
14393;BME280;7281;42.678;23.372;2022-08-01T08:08:24;94887.91;;;27.13;31.64
14393;BME280;7281;42.678;23.372;2022-08-01T08:10:51;94885.25;;;27.39;31.07
14393;BME280;7281;42.678;23.372;2022-08-01T08:13:18;94880.25;;;27.38;30.84
14393;BME280;7281;42.678;23.372;2022-08-01T08:15:46;94871.56;;;27.48;30.74
14393;BME280;7281;42.678;23.372;2022-08-01T08:18:14;94882.63;;;27.20;30.71
14393;BME280;7281;42.678;23.372;2022-08-01T08:20:42;94875.59;;;26.29;31.64
14393;BME280;7281;42.678;23.372;2022-08-01T08:23:10;94864.66;;;27.24;31.76
14393;BME280;7281;42.678;23.372;2022-08-01T08:26:12;94886.16;;;27.73;31.47
14393;BME280;7281;42.678;23.372;2022-08-01T08:28:39;94873.47;;;27.25;31.51
14393;BME280;7281;42.678;23.372;2022-08-01T08:31:07;94866.75;;;27.60;30.88
14393;BME280;7281;42.678;23.372;2022-08-01T08:33:51;94882.38;;;27.29;30.62
14393;BME280;7281;42.678;23.372;2022-08-01T08:36:18;94871.84;;;27.69;32.07
14393;BME280;7281;42.678;23.372;2022-08-01T08:38:45;94877.28;;;27.46;30.01
14393;BME280;7281;42.678;23.372;2022-08-01T08:41:12;94883.03;;;26.77;30.54
14393;BME280;7281;42.678;23.372;2022-08-01T08:43:46;94880.84;;;27.05;30.67
14393;BME280;7281;42.678;23.372;2022-08-01T08:46:14;94878.75;;;27.18;30.64
14393;BME280;7281;42.678;23.372;2022-08-01T08:48:42;94873.00;;;27.42;29.73
14393;BME280;7281;42.678;23.372;2022-08-01T08:51:10;94883.84;;;28.01;30.71
14393;BME280;7281;42.678;23.372;2022-08-01T08:53:41;94871.63;;;28.07;29.23
14393;BME280;7281;42.678;23.372;2022-08-01T08:56:12;94868.94;;;27.81;30.23
14393;BME280;7281;42.678;23.372;2022-08-01T08:58:41;94867.06;;;27.55;29.80
14393;BME280;7281;42.678;23.372;2022-08-01T09:01:09;94871.91;;;28.28;29.86
14393;BME280;7281;42.678;23.372;2022-08-01T09:03:36;94866.28;;;28.44;28.62
14393;BME280;7281;42.678;23.372;2022-08-01T09:06:03;94869.41;;;28.16;28.06
14393;BME280;7281;42.678;23.372;2022-08-01T09:08:30;94861.22;;;28.39;27.88
14393;BME280;7281;42.678;23.372;2022-08-01T09:10:57;94864.31;;;26.61;30.14
14393;BME280;7281;42.678;23.372;2022-08-01T09:13:24;94857.00;;;27.52;30.00
14393;BME280;7281;42.678;23.372;2022-08-01T09:15:53;94856.53;;;27.99;28.23
14393;BME280;7281;42.678;23.372;2022-08-01T09:23:38;94845.13;;;27.83;28.55
14393;BME280;7281;42.678;23.372;2022-08-01T09:26:34;94851.34;;;28.50;28.06
14393;BME280;7281;42.678;23.372;2022-08-01T09:29:04;94851.31;;;28.46;27.39
14393;BME280;7281;42.678;23.372;2022-08-01T09:31:40;94848.59;;;28.79;27.94
14393;BME280;7281;42.678;23.372;2022-08-01T09:34:14;94854.66;;;28.73;27.60
14393;BME280;7281;42.678;23.372;2022-08-01T09:36:47;94851.16;;;27.99;27.96
14393;BME280;7281;42.678;23.372;2022-08-01T09:39:24;94858.22;;;28.14;27.68
14393;BME280;7281;42.678;23.372;2022-08-01T09:41:53;94860.13;;;28.10;27.23
14393;BME280;7281;42.678;23.372;2022-08-01T09:44:42;94863.94;;;28.75;27.01
14393;BME280;7281;42.678;23.372;2022-08-01T09:47:20;94850.28;;;29.02;27.59
14393;BME280;7281;42.678;23.372;2022-08-01T09:49:56;94850.50;;;29.23;26.70
14393;BME280;7281;42.678;23.372;2022-08-01T09:52:27;94836.94;;;28.35;27.13
14393;BME280;7281;42.678;23.372;2022-08-01T09:54:59;94854.63;;;28.69;28.33
14393;BME280;7281;42.678;23.372;2022-08-01T09:57:27;94849.84;;;29.40;27.51
14393;BME280;7281;42.678;23.372;2022-08-01T09:59:57;94841.53;;;29.66;28.13
14393;BME280;7281;42.678;23.372;2022-08-01T10:04:56;94828.50;;;29.75;26.96
14393;BME280;7281;42.678;23.372;2022-08-01T10:07:58;94838.69;;;30.13;26.80
14393;BME280;7281;42.678;23.372;2022-08-01T10:10:25;94831.84;;;30.33;26.07
14393;BME280;7281;42.678;23.372;2022-08-01T10:12:58;94828.34;;;30.26;25.78
14393;BME280;7281;42.678;23.372;2022-08-01T10:15:26;94816.34;;;30.23;27.26
14393;BME280;7281;42.678;23.372;2022-08-01T10:18:07;94826.69;;;29.35;27.14
14393;BME280;7281;42.678;23.372;2022-08-01T10:20:52;94825.25;;;29.52;26.91
14393;BME280;7281;42.678;23.372;2022-08-01T10:23:25;94826.34;;;30.05;27.05
14393;BME280;7281;42.678;23.372;2022-08-01T10:26:08;94823.34;;;30.28;26.18
14393;BME280;7281;42.678;23.372;2022-08-01T10:28:38;94826.00;;;30.24;26.27
14393;BME280;7281;42.678;23.372;2022-08-01T10:31:07;94812.00;;;29.33;26.71
14393;BME280;7281;42.678;23.372;2022-08-01T10:33:40;94823.69;;;30.19;27.10
14393;BME280;7281;42.678;23.372;2022-08-01T10:36:21;94820.19;;;30.22;26.00
14393;BME280;7281;42.678;23.372;2022-08-01T10:38:53;94803.31;;;30.53;27.14
14393;BME280;7281;42.678;23.372;2022-08-01T10:41:21;94808.81;;;29.17;26.91
14393;BME280;7281;42.678;23.372;2022-08-01T10:43:48;94814.31;;;29.31;27.10
14393;BME280;7281;42.678;23.372;2022-08-01T10:46:15;94812.13;;;29.47;27.26
14393;BME280;7281;42.678;23.372;2022-08-01T10:48:59;94813.88;;;29.22;27.43
14393;BME280;7281;42.678;23.372;2022-08-01T10:51:27;94815.25;;;29.05;27.81
14393;BME280;7281;42.678;23.372;2022-08-01T10:54:15;94810.50;;;29.39;27.60
14393;BME280;7281;42.678;23.372;2022-08-01T10:56:47;94803.13;;;30.01;28.47
14393;BME280;7281;42.678;23.372;2022-08-01T10:59:26;94801.78;;;30.73;26.78
14393;BME280;7281;42.678;23.372;2022-08-01T11:02:26;94802.50;;;30.28;25.95
14393;BME280;7281;42.678;23.372;2022-08-01T11:05:04;94799.47;;;30.54;25.89
14393;BME280;7281;42.678;23.372;2022-08-01T11:12:49;94804.56;;;30.95;25.19
14393;BME280;7281;42.678;23.372;2022-08-01T11:15:18;94800.66;;;30.71;26.74
14393;BME280;7281;42.678;23.372;2022-08-01T11:17:57;94793.28;;;30.50;26.04
14393;BME280;7281;42.678;23.372;2022-08-01T11:20:30;94792.50;;;30.53;26.13
14393;BME280;7281;42.678;23.372;2022-08-01T11:28:27;94790.22;;;31.47;26.24
14393;BME280;7281;42.678;23.372;2022-08-01T11:41:40;94791.63;;;30.21;26.02
14393;BME280;7281;42.678;23.372;2022-08-01T11:44:14;94785.56;;;30.56;25.53
14393;BME280;7281;42.678;23.372;2022-08-01T11:54:48;94784.44;;;30.92;25.38
14393;BME280;7281;42.678;23.372;2022-08-01T11:57:21;94781.72;;;30.99;26.00
14393;BME280;7281;42.678;23.372;2022-08-01T11:59:59;94775.50;;;31.41;25.08
14393;BME280;7281;42.678;23.372;2022-08-01T12:02:38;94777.09;;;31.38;24.85
14393;BME280;7281;42.678;23.372;2022-08-01T12:07:39;94775.16;;;31.18;25.30
14393;BME280;7281;42.678;23.372;2022-08-01T12:10:11;94772.44;;;31.21;26.33
14393;BME280;7281;42.678;23.372;2022-08-01T12:12:46;94764.66;;;31.48;25.27
14393;BME280;7281;42.678;23.372;2022-08-01T12:15:15;94771.53;;;31.77;25.08
14393;BME280;7281;42.678;23.372;2022-08-01T12:17:47;94785.59;;;31.09;24.92
14393;BME280;7281;42.678;23.372;2022-08-01T12:20:28;94785.63;;;30.95;26.05
14393;BME280;7281;42.678;23.372;2022-08-01T12:22:59;94779.38;;;31.50;26.39
14393;BME280;7281;42.678;23.372;2022-08-01T12:25:26;94776.28;;;31.31;25.56
14393;BME280;7281;42.678;23.372;2022-08-01T12:27:53;94779.41;;;31.15;25.71
14393;BME280;7281;42.678;23.372;2022-08-01T12:30:23;94783.66;;;31.37;25.92
14393;BME280;7281;42.678;23.372;2022-08-01T12:32:53;94766.13;;;31.77;25.08
14393;BME280;7281;42.678;23.372;2022-08-01T12:35:24;94771.63;;;31.56;24.98
14393;BME280;7281;42.678;23.372;2022-08-01T12:37:54;94784.00;;;31.46;25.09
14393;BME280;7281;42.678;23.372;2022-08-01T12:40:24;94779.63;;;31.98;25.44
14393;BME280;7281;42.678;23.372;2022-08-01T12:42:55;94783.16;;;31.74;24.85
14393;BME280;7281;42.678;23.372;2022-08-01T12:45:32;94778.19;;;30.49;25.38
14393;BME280;7281;42.678;23.372;2022-08-01T12:48:00;94774.41;;;30.93;25.22
14393;BME280;7281;42.678;23.372;2022-08-01T12:50:29;94774.72;;;31.30;25.12
14393;BME280;7281;42.678;23.372;2022-08-01T12:52:58;94763.13;;;31.47;25.28
14393;BME280;7281;42.678;23.372;2022-08-01T12:55:26;94755.63;;;32.00;24.96
14393;BME280;7281;42.678;23.372;2022-08-01T12:58:07;94760.53;;;32.19;24.28
14393;BME280;7281;42.678;23.372;2022-08-01T13:00:43;94753.72;;;31.90;24.55
14393;BME280;7281;42.678;23.372;2022-08-01T13:03:16;94750.31;;;32.51;24.53
14393;BME280;7281;42.678;23.372;2022-08-01T13:06:15;94748.16;;;32.18;24.39
14393;BME280;7281;42.678;23.372;2022-08-01T13:08:43;94755.06;;;32.26;24.42
14393;BME280;7281;42.678;23.372;2022-08-01T13:11:12;94742.31;;;32.81;23.93
14393;BME280;7281;42.678;23.372;2022-08-01T13:16:23;94735.78;;;33.20;24.52
14393;BME280;7281;42.678;23.372;2022-08-01T13:19:13;94743.75;;;33.41;24.15
14393;BME280;7281;42.678;23.372;2022-08-01T13:21:56;94752.66;;;33.45;24.27
14393;BME280;7281;42.678;23.372;2022-08-01T13:24:25;94736.50;;;32.79;23.92
14393;BME280;7281;42.678;23.372;2022-08-01T13:26:58;94744.53;;;31.56;25.03
14393;BME280;7281;42.678;23.372;2022-08-01T13:29:37;94740.03;;;32.18;25.40
14393;BME280;7281;42.678;23.372;2022-08-01T13:32:15;94737.78;;;31.99;25.03
14393;BME280;7281;42.678;23.372;2022-08-01T13:35:22;94732.78;;;32.59;24.22
14393;BME280;7281;42.678;23.372;2022-08-01T13:37:49;94745.97;;;33.09;24.48
14393;BME280;7281;42.678;23.372;2022-08-01T13:40:24;94733.47;;;33.18;23.89
14393;BME280;7281;42.678;23.372;2022-08-01T13:42:53;94729.63;;;33.16;23.90
14393;BME280;7281;42.678;23.372;2022-08-01T13:45:22;94735.13;;;33.09;23.56
14393;BME280;7281;42.678;23.372;2022-08-01T13:47:52;94731.59;;;33.52;23.67
14393;BME280;7281;42.678;23.372;2022-08-01T13:50:38;94724.41;;;33.69;23.84
14393;BME280;7281;42.678;23.372;2022-08-01T13:53:04;94727.25;;;33.92;23.23
14393;BME280;7281;42.678;23.372;2022-08-01T13:55:31;94736.59;;;33.17;24.76
14393;BME280;7281;42.678;23.372;2022-08-01T13:58:01;94733.00;;;33.27;24.07
14393;BME280;7281;42.678;23.372;2022-08-01T14:00:30;94730.03;;;33.55;23.43
14393;BME280;7281;42.678;23.372;2022-08-01T14:02:57;94730.09;;;33.48;24.05
14393;BME280;7281;42.678;23.372;2022-08-01T14:05:24;94737.72;;;33.60;23.44
14393;BME280;7281;42.678;23.372;2022-08-01T14:07:50;94729.34;;;33.44;23.78
14393;BME280;7281;42.678;23.372;2022-08-01T14:10:23;94731.09;;;33.24;23.52
14393;BME280;7281;42.678;23.372;2022-08-01T14:12:50;94732.78;;;33.11;23.76
14393;BME280;7281;42.678;23.372;2022-08-01T14:15:17;94719.22;;;32.59;24.25
14393;BME280;7281;42.678;23.372;2022-08-01T14:18:04;94721.78;;;32.26;24.91
14393;BME280;7281;42.678;23.372;2022-08-01T14:20:32;94725.75;;;33.17;24.28